Langston, OK (73050)

8:30 AM CDT on October 24, 2014 (GMT -0500)
Near Antelope Creek | Change Station
CLOSE
Current Station
Personal Weather Station
Location: Guthrie, OK
Elevation: 1109 ft
Nearby Weather Stations

Elev 1109 ft 35.91 °N, 97.35 °W | Updated 4 seconds ago

Clear
Clear
59.5 °F
Feels Like 59.5 °F
N
5.0
Wind Variable Wind from South
Gusts 12.0 mph

Today
High -- | Low -- °F
--% Chance of Precip.
Yesterday
High -- | Low -- °F
Precip. -- in
7:43 AM 6:41 PM
New Moon, 0% visible
Pressure 30.07 in
Visibility 10.0 miles
Clouds Clear
Dew Point 57 °F
Humidity 90%
Rainfall 0.00 in
Snow Depth Not available.
UV 0 out of 12
Pollen 5.60 out of 12
Air Quality Not available.
Flu Activity No Activity
METAR KGOK 241253Z AUTO 17007KT 10SM CLR 14/13 A3008 RMK AO2 SLP182 T01440128

More Conditions Fewer Conditions

Pressure 30.07 in
Visibility 10.0 miles
Clouds Clear
Dew Point 57 °F
Humidity 90%
Rainfall 0.00 in
Snow Depth Not available.
UV 0 out of 12
Pollen 5.60 out of 12
Air Quality Not available.
Flu Activity No Activity
METAR KGOK 241253Z AUTO 17007KT 10SM CLR 14/13 A3008 RMK AO2 SLP182 T01440128

More Conditions Fewer Conditions

10-Day Weather Forecast

Almanac

Astronomy

Oct. 24, 2014 Rise Set
Actual Time 7:43 AM CDT 6:41 PM CDT
Civil Twilight 7:17 AM CDT 7:08 PM CDT
Nautical Twilight 6:47 AM CDT 7:38 PM CDT
Astronomical Twilight 6:18 AM CDT 8:07 PM CDT
Moon 8:23 AM CDT 7:24 PM CDT
Length of Visible Light 11h 50m
Length of Day
10h 58m
Tomorrow will be 2m 5s shorter.
New Moon, 0% of the Moon is Illuminated
Today
New Moon
Oct 30
First Quarter
Nov 6
Full
Nov 14
Last Quarter
Nov 22
New

Today's Extremes

State Highs State Lows

Community

WunderPhotos

Upload Photos

1,764,550 photos uploaded!

WunderBlogs® & News

Nearby

Snow Depth

Station Depth Elevation
No new snow has been reported.

Earthquake Activity

City Distance Mag. Time & Date
Medford, Oklahoma 55 miles 3.0 2:06 AM CDT
2014-10-23
Pawnee, Oklahoma 34 miles 2.7 1:06 AM CDT
2014-10-23
Luther, Oklahoma 23 miles 2.5 10:36 PM CDT
2014-10-22
Crescent, Oklahoma 25 miles 2.7 9:58 PM CDT
2014-10-22
Minimum magnitude displayed is 2.5.

Coastal Water Temperatures

Place Temperature
No Stations Reporting

Nearby Weather Stations